Time;durP1;ratioP1;P1;durP2;ratioP2;P2;SDS_P1;SDS_P2;PMS_P1;PMS_P2;Temp;Humidity;BMP_temperature;BMP_pressure;BME280_temperature;BME280_humidity;BME280_pressure;Samples;Min_cycle;Max_cycle;Signal;HPM_P1;HPM_P2
2022/04/06 00:00:38;;;;;;;19.13;5.15;;;;;;;;;;5043480;28;20013;-68
2022/04/06 00:03:03;;;;;;;18.10;4.78;;;;;;;;;;5040216;28;20021;-69
2022/04/06 00:05:28;;;;;;;22.08;5.20;;;;;;;;;;5035134;28;20025;-68
2022/04/06 00:07:53;;;;;;;10.43;4.50;;;;;;;;;;5034067;28;20044;-68
2022/04/06 00:10:19;;;;;;;9.13;3.47;;;;;;;;;;5038341;28;20023;-68
2022/04/06 00:12:44;;;;;;;7.75;2.63;;;;;;;;;;5033331;28;20030;-71
2022/04/06 00:15:10;;;;;;;15.98;4.32;;;;;;;;;;5031910;28;20025;-68
2022/04/06 00:17:36;;;;;;;14.05;4.75;;;;;;;;;;5029758;28;20429;-69
2022/04/06 00:20:01;;;;;;;23.08;6.25;;;;;;;;;;5045926;28;20017;-69
2022/04/06 00:22:27;;;;;;;15.45;4.88;;;;;;;;;;5035404;28;20441;-68
2022/04/06 00:24:52;;;;;;;7.90;3.58;;;;;;;;;;5037288;28;20021;-69
2022/04/06 00:27:17;;;;;;;17.83;5.88;;;;;;;;;;5036278;28;20056;-69
2022/04/06 00:29:43;;;;;;;17.25;4.82;;;;;;;;;;5038837;28;20021;-68
2022/04/06 00:32:08;;;;;;;14.13;4.50;;;;;;;;;;5041275;28;20032;-69
2022/04/06 00:37:17;;;;;;;19.45;4.25;;;;;;;;;;5030834;28;20024;-68
2022/04/06 00:39:43;;;;;;;14.67;3.87;;;;;;;;;;5031382;28;20021;-68
2022/04/06 00:42:08;;;;;;;14.18;4.05;;;;;;;;;;5037643;28;20334;-69
2022/04/06 00:44:34;;;;;;;12.60;3.42;;;;;;;;;;5038364;28;20021;-69
2022/04/06 00:47:00;;;;;;;17.48;4.30;;;;;;;;;;5042809;28;20578;-69
2022/04/06 00:49:26;;;;;;;15.32;3.80;;;;;;;;;;5035351;28;20021;-70
2022/04/06 00:51:51;;;;;;;8.93;3.35;;;;;;;;;;5042412;28;20017;-68
2022/04/06 00:54:18;;;;;;;16.75;5.95;;;;;;;;;;5033871;28;20102;-70
2022/04/06 00:56:44;;;;;;;16.75;5.70;;;;;;;;;;5043787;28;20108;-70
2022/04/06 00:59:10;;;;;;;17.02;4.78;;;;;;;;;;5045723;28;21186;-70
2022/04/06 01:01:35;;;;;;;22.00;5.22;;;;;;;;;;5029089;28;20100;-70
2022/04/06 01:04:00;;;;;;;15.05;3.22;;;;;;;;;;5025032;28;20040;-70
2022/04/06 01:06:26;;;;;;;20.02;5.07;;;;;;;;;;5042080;28;20028;-69
2022/04/06 01:08:52;;;;;;;6.90;3.25;;;;;;;;;;5041764;28;20052;-70
2022/04/06 01:11:17;;;;;;;14.13;3.90;;;;;;;;;;5041321;28;20021;-68
2022/04/06 01:13:42;;;;;;;9.18;2.08;;;;;;;;;;5032547;28;20585;-70
2022/04/06 01:16:08;;;;;;;20.45;4.65;;;;;;;;;;5039604;28;20017;-69
2022/04/06 01:18:33;;;;;;;18.53;4.20;;;;;;;;;;5029291;28;20016;-70
2022/04/06 01:20:58;;;;;;;12.37;3.57;;;;;;;;;;5036084;28;20280;-69
2022/04/06 01:23:23;;;;;;;10.85;3.25;;;;;;;;;;5029679;28;20311;-70
2022/04/06 01:25:49;;;;;;;18.52;4.22;;;;;;;;;;5035154;28;20025;-70
2022/04/06 01:28:14;;;;;;;10.82;3.63;;;;;;;;;;5035283;28;20086;-70
2022/04/06 01:30:40;;;;;;;16.25;3.58;;;;;;;;;;5032881;28;20017;-70
2022/04/06 01:33:06;;;;;;;13.27;3.25;;;;;;;;;;5032282;28;20029;-70
2022/04/06 01:35:31;;;;;;;13.07;2.72;;;;;;;;;;5034074;28;20024;-70
2022/04/06 01:37:56;;;;;;;12.38;3.42;;;;;;;;;;5038585;28;20013;-71
2022/04/06 01:40:21;;;;;;;4.80;2.47;;;;;;;;;;5034394;28;20018;-71
2022/04/06 01:42:47;;;;;;;15.57;4.38;;;;;;;;;;5029640;28;20037;-71
2022/04/06 01:45:12;;;;;;;12.23;2.90;;;;;;;;;;5032780;28;20505;-71
2022/04/06 01:47:37;;;;;;;8.32;1.90;;;;;;;;;;5032183;28;20029;-71
2022/04/06 01:52:46;;;;;;;22.85;2.60;;;;;;;;;;5020141;28;20291;-70
2022/04/06 01:55:13;;;;;;;15.23;3.28;;;;;;;;;;5028965;28;20009;-71
2022/04/06 01:57:39;;;;;;;10.40;2.22;;;;;;;;;;5037489;28;20028;-71
2022/04/06 02:00:09;;;;;;;11.85;3.20;;;;;;;;;;5032815;28;20381;-70
2022/04/06 02:02:34;;;;;;;8.35;2.75;;;;;;;;;;5032618;28;20120;-71
2022/04/06 02:05:00;;;;;;;11.88;2.63;;;;;;;;;;5031797;28;20112;-71
2022/04/06 02:07:25;;;;;;;11.70;3.08;;;;;;;;;;5039114;28;20025;-71
2022/04/06 02:09:50;;;;;;;1.85;1.58;;;;;;;;;;5032273;28;20107;-70
2022/04/06 02:12:16;;;;;;;7.45;2.55;;;;;;;;;;5033419;28;20437;-71
2022/04/06 02:14:41;;;;;;;19.92;3.63;;;;;;;;;;5032318;28;20032;-70
2022/04/06 02:17:07;;;;;;;4.43;2.03;;;;;;;;;;5021554;28;20022;-71
2022/04/06 02:19:33;;;;;;;5.88;2.50;;;;;;;;;;5030565;28;20492;-71
2022/04/06 02:21:58;;;;;;;14.85;3.45;;;;;;;;;;5037600;28;20057;-70
2022/04/06 02:24:23;;;;;;;17.55;4.28;;;;;;;;;;5031964;28;20338;-70
2022/04/06 02:26:48;;;;;;;9.98;2.80;;;;;;;;;;5031661;28;20143;-71
2022/04/06 02:29:15;;;;;;;19.67;4.15;;;;;;;;;;5037166;28;20401;-71
2022/04/06 02:31:40;;;;;;;16.02;3.10;;;;;;;;;;5020132;28;20468;-71
2022/04/06 02:34:06;;;;;;;11.52;3.22;;;;;;;;;;5037022;28;20018;-71
2022/04/06 02:36:31;;;;;;;12.77;3.00;;;;;;;;;;5032807;28;20029;-70
2022/04/06 02:38:56;;;;;;;8.43;3.30;;;;;;;;;;5037595;28;20530;-71
2022/04/06 02:41:21;;;;;;;8.40;2.42;;;;;;;;;;5029557;28;20017;-71
2022/04/06 02:43:46;;;;;;;10.90;2.90;;;;;;;;;;5026940;28;20033;-71
2022/04/06 02:46:12;;;;;;;11.40;3.17;;;;;;;;;;5040467;28;20013;-71
2022/04/06 02:48:37;;;;;;;18.63;3.38;;;;;;;;;;5026914;28;20272;-70
2022/04/06 02:51:02;;;;;;;12.00;2.65;;;;;;;;;;5033646;28;20056;-71
2022/04/06 02:53:27;;;;;;;6.75;2.15;;;;;;;;;;5029276;28;20115;-70
2022/04/06 02:55:53;;;;;;;14.93;3.00;;;;;;;;;;5020012;28;20174;-71
2022/04/06 02:58:18;;;;;;;13.00;3.10;;;;;;;;;;5036627;28;20021;-70
2022/04/06 03:00:43;;;;;;;14.23;2.65;;;;;;;;;;5028597;28;20399;-70
2022/04/06 03:03:09;;;;;;;10.85;2.72;;;;;;;;;;5028085;28;20025;-71
2022/04/06 03:05:34;;;;;;;15.57;2.83;;;;;;;;;;5026336;28;20025;-71
2022/04/06 03:07:59;;;;;;;10.43;3.13;;;;;;;;;;5025910;28;20017;-71
2022/04/06 03:10:25;;;;;;;10.77;2.83;;;;;;;;;;5043676;28;20130;-71
2022/04/06 03:12:50;;;;;;;14.05;3.88;;;;;;;;;;5033863;28;20032;-70
2022/04/06 03:15:15;;;;;;;8.18;2.60;;;;;;;;;;5037942;28;20211;-71
2022/04/06 03:17:41;;;;;;;15.07;4.03;;;;;;;;;;5022456;28;20100;-71
2022/04/06 03:20:07;;;;;;;20.67;4.25;;;;;;;;;;5032676;28;20726;-70
2022/04/06 03:22:33;;;;;;;15.27;4.65;;;;;;;;;;5036671;28;20052;-71
2022/04/06 03:24:58;;;;;;;10.52;3.33;;;;;;;;;;5026639;28;20107;-70
2022/04/06 03:27:23;;;;;;;13.20;4.07;;;;;;;;;;5031432;28;20097;-70
2022/04/06 03:29:48;;;;;;;18.15;4.90;;;;;;;;;;5028544;28;20029;-71
2022/04/06 03:32:14;;;;;;;12.50;4.20;;;;;;;;;;5032456;28;20494;-71
2022/04/06 03:34:39;;;;;;;12.32;4.93;;;;;;;;;;5032847;28;20267;-71
2022/04/06 03:37:05;;;;;;;19.85;4.78;;;;;;;;;;5040444;28;20118;-71
2022/04/06 03:39:30;;;;;;;14.20;3.15;;;;;;;;;;5022730;28;20453;-71
2022/04/06 03:41:55;;;;;;;5.80;2.75;;;;;;;;;;5032873;28;20036;-70
2022/04/06 03:44:20;;;;;;;9.05;2.65;;;;;;;;;;5028521;28;20028;-71
2022/04/06 03:46:45;;;;;;;15.55;5.55;;;;;;;;;;5026727;28;20037;-70
2022/04/06 03:49:11;;;;;;;17.20;3.20;;;;;;;;;;5037330;28;20535;-71
2022/04/06 03:51:36;;;;;;;15.15;4.07;;;;;;;;;;5033434;28;20040;-71
2022/04/06 03:54:01;;;;;;;10.88;3.38;;;;;;;;;;5038716;28;20040;-71
2022/04/06 03:56:26;;;;;;;8.95;3.67;;;;;;;;;;5031475;28;20432;-71
2022/04/06 03:58:52;;;;;;;21.60;4.63;;;;;;;;;;5033406;28;20023;-71
2022/04/06 04:01:17;;;;;;;20.38;3.38;;;;;;;;;;5032641;28;20017;-71
2022/04/06 04:03:43;;;;;;;17.20;3.70;;;;;;;;;;5032629;28;20739;-71
2022/04/06 04:06:08;;;;;;;13.43;3.97;;;;;;;;;;5039540;28;20080;-70
2022/04/06 04:08:33;;;;;;;5.47;1.95;;;;;;;;;;5041669;28;20449;-70
2022/04/06 04:10:58;;;;;;;10.63;2.13;;;;;;;;;;5027410;28;20033;-70
2022/04/06 04:13:24;;;;;;;13.10;3.47;;;;;;;;;;5035912;28;20067;-71
2022/04/06 04:15:49;;;;;;;19.67;4.50;;;;;;;;;;5035372;28;20067;-70
2022/04/06 04:18:14;;;;;;;7.87;2.70;;;;;;;;;;5040755;28;20271;-70
2022/04/06 04:20:41;;;;;;;12.80;3.93;;;;;;;;;;5031871;28;20295;-71
2022/04/06 04:23:07;;;;;;;9.40;2.88;;;;;;;;;;5030546;28;20314;-69
2022/04/06 04:25:32;;;;;;;13.38;3.42;;;;;;;;;;5030168;28;20052;-71
2022/04/06 04:27:57;;;;;;;8.93;3.00;;;;;;;;;;5031960;28;20484;-70
2022/04/06 04:30:22;;;;;;;13.07;3.65;;;;;;;;;;5041873;28;20287;-71
2022/04/06 04:32:47;;;;;;;11.40;4.25;;;;;;;;;;5040118;28;20032;-70
2022/04/06 04:35:13;;;;;;;10.10;2.42;;;;;;;;;;5040018;28;20059;-71
2022/04/06 04:37:38;;;;;;;9.82;2.65;;;;;;;;;;5035587;28;20022;-69
2022/04/06 04:40:04;;;;;;;19.65;4.45;;;;;;;;;;5039273;28;20022;-71
2022/04/06 04:42:29;;;;;;;13.50;4.20;;;;;;;;;;5023952;28;20026;-71
2022/04/06 04:44:54;;;;;;;10.73;3.88;;;;;;;;;;5043213;28;20076;-71
2022/04/06 04:47:19;;;;;;;11.27;3.33;;;;;;;;;;5036979;28;20025;-71
2022/04/06 04:49:45;;;;;;;5.80;2.90;;;;;;;;;;5035531;28;20417;-70
2022/04/06 04:52:10;;;;;;;17.08;5.18;;;;;;;;;;5032817;28;20287;-71
2022/04/06 04:54:36;;;;;;;11.07;2.70;;;;;;;;;;5027082;28;20148;-71
2022/04/06 04:57:01;;;;;;;13.02;3.78;;;;;;;;;;5022080;28;20018;-70
2022/04/06 04:59:26;;;;;;;10.60;2.88;;;;;;;;;;5043697;28;20021;-71
2022/04/06 05:01:52;;;;;;;12.23;2.90;;;;;;;;;;5035509;28;20021;-71
2022/04/06 05:04:17;;;;;;;14.32;3.75;;;;;;;;;;5027603;28;20124;-71
2022/04/06 05:06:43;;;;;;;12.07;2.80;;;;;;;;;;5024523;28;20082;-70
2022/04/06 05:09:08;;;;;;;9.65;2.53;;;;;;;;;;5038415;28;20025;-68
2022/04/06 05:11:33;;;;;;;5.93;2.03;;;;;;;;;;5031115;28;20029;-69
2022/04/06 05:13:58;;;;;;;15.55;3.50;;;;;;;;;;5029172;28;20021;-69
2022/04/06 05:16:24;;;;;;;17.08;4.03;;;;;;;;;;5030476;28;20477;-70
2022/04/06 05:18:49;;;;;;;8.32;3.30;;;;;;;;;;5031457;28;21641;-69
2022/04/06 05:21:14;;;;;;;11.55;3.60;;;;;;;;;;5043469;28;20673;-67
2022/04/06 05:23:39;;;;;;;6.22;1.60;;;;;;;;;;5028941;28;20497;-68
2022/04/06 05:26:04;;;;;;;9.57;3.88;;;;;;;;;;5033878;28;20028;-68
2022/04/06 05:28:30;;;;;;;10.57;3.03;;;;;;;;;;5030842;28;20135;-67
2022/04/06 05:30:55;;;;;;;9.77;3.57;;;;;;;;;;5042285;28;20361;-70
2022/04/06 05:33:20;;;;;;;14.82;3.38;;;;;;;;;;5038223;28;20279;-71
2022/04/06 05:35:45;;;;;;;12.77;2.83;;;;;;;;;;5026748;28;20038;-69
2022/04/06 05:38:11;;;;;;;18.63;5.68;;;;;;;;;;5029353;28;20036;-70
2022/04/06 05:40:36;;;;;;;17.42;3.78;;;;;;;;;;5035861;28;20131;-68
2022/04/06 05:43:01;;;;;;;6.05;2.35;;;;;;;;;;5032758;28;20021;-69
2022/04/06 05:45:26;;;;;;;12.20;3.40;;;;;;;;;;5035749;28;20532;-69
2022/04/06 05:47:52;;;;;;;9.02;3.15;;;;;;;;;;5032707;28;20766;-69
2022/04/06 05:50:17;;;;;;;10.57;3.35;;;;;;;;;;5039451;28;20622;-69
2022/04/06 05:52:42;;;;;;;6.73;2.90;;;;;;;;;;5041205;28;21861;-70
2022/04/06 05:55:08;;;;;;;14.25;3.30;;;;;;;;;;5027845;28;20276;-70
2022/04/06 05:57:33;;;;;;;14.50;2.83;;;;;;;;;;5033529;28;20017;-69
2022/04/06 05:59:58;;;;;;;10.65;3.00;;;;;;;;;;5030633;28;20527;-70
2022/04/06 06:02:24;;;;;;;11.02;2.47;;;;;;;;;;5035552;28;20052;-68
2022/04/06 06:04:50;;;;;;;6.20;2.60;;;;;;;;;;5032599;28;20032;-68
2022/04/06 06:07:17;;;;;;;16.90;2.42;;;;;;;;;;5037821;28;20082;-68
2022/04/06 06:09:43;;;;;;;9.45;2.38;;;;;;;;;;5030392;28;20048;-68
2022/04/06 06:12:08;;;;;;;11.37;2.50;;;;;;;;;;5023102;28;20462;-68
2022/04/06 06:14:33;;;;;;;7.72;1.70;;;;;;;;;;5027058;28;20331;-69
2022/04/06 06:16:58;;;;;;;11.82;2.70;;;;;;;;;;5024316;28;20138;-68
2022/04/06 06:19:24;;;;;;;5.87;1.97;;;;;;;;;;5020354;28;20017;-68
2022/04/06 06:21:49;;;;;;;14.55;2.65;;;;;;;;;;5029838;28;22273;-72
2022/04/06 06:24:14;;;;;;;9.23;2.20;;;;;;;;;;5031204;28;20532;-71
2022/04/06 06:26:42;;;;;;;9.93;2.63;;;;;;;;;;5025728;28;20022;-70
2022/04/06 06:29:07;;;;;;;13.45;2.10;;;;;;;;;;5026463;28;20078;-69
2022/04/06 06:31:33;;;;;;;3.47;1.63;;;;;;;;;;5029389;28;20053;-70
2022/04/06 06:33:58;;;;;;;13.38;2.75;;;;;;;;;;5025877;28;20018;-67
2022/04/06 06:36:24;;;;;;;6.45;1.50;;;;;;;;;;5039445;28;20059;-70
2022/04/06 06:38:49;;;;;;;9.98;3.22;;;;;;;;;;5039524;28;20346;-68
2022/04/06 06:41:15;;;;;;;14.30;2.15;;;;;;;;;;5036338;28;20024;-71
2022/04/06 06:43:40;;;;;;;9.40;2.25;;;;;;;;;;5030618;28;20021;-68
2022/04/06 06:46:05;;;;;;;7.00;2.20;;;;;;;;;;5031986;28;20450;-68
2022/04/06 06:48:30;;;;;;;3.38;1.00;;;;;;;;;;5040750;28;20016;-68
2022/04/06 06:50:56;;;;;;;4.00;1.53;;;;;;;;;;5031341;28;20037;-69
2022/04/06 06:53:21;;;;;;;6.00;1.52;;;;;;;;;;5029403;28;20375;-68
2022/04/06 06:55:46;;;;;;;2.53;1.47;;;;;;;;;;5032061;28;20105;-70
2022/04/06 06:58:11;;;;;;;4.10;1.42;;;;;;;;;;5036160;28;20294;-68
2022/04/06 07:00:36;;;;;;;8.13;1.67;;;;;;;;;;5027179;28;20017;-69
2022/04/06 07:03:02;;;;;;;6.82;2.95;;;;;;;;;;5025719;28;20029;-68
2022/04/06 07:05:28;;;;;;;9.63;1.30;;;;;;;;;;5023152;28;20026;-70
2022/04/06 07:07:54;;;;;;;7.28;1.70;;;;;;;;;;5037539;28;20358;-69
2022/04/06 07:10:20;;;;;;;8.95;1.98;;;;;;;;;;5032362;28;20140;-68
2022/04/06 07:12:45;;;;;;;3.15;1.00;;;;;;;;;;5035245;28;20108;-68
2022/04/06 07:15:11;;;;;;;6.43;1.52;;;;;;;;;;5026493;28;20714;-71
2022/04/06 07:17:36;;;;;;;6.45;1.65;;;;;;;;;;5031936;28;20017;-70
2022/04/06 07:20:02;;;;;;;7.35;1.38;;;;;;;;;;5031745;28;20020;-69
2022/04/06 07:22:27;;;;;;;4.82;0.95;;;;;;;;;;5038153;28;20021;-74
2022/04/06 07:24:52;;;;;;;12.80;2.07;;;;;;;;;;5026307;28;20076;-70
2022/04/06 07:27:17;;;;;;;6.93;1.90;;;;;;;;;;5025680;28;20359;-71
2022/04/06 07:29:43;;;;;;;9.90;2.20;;;;;;;;;;5032526;28;20616;-71
2022/04/06 07:32:08;;;;;;;6.82;1.75;;;;;;;;;;5042532;28;20484;-71
2022/04/06 07:34:33;;;;;;;5.18;1.70;;;;;;;;;;5035100;28;20454;-71
2022/04/06 07:36:59;;;;;;;6.97;1.92;;;;;;;;;;5040100;28;20017;-71
2022/04/06 07:39:26;;;;;;;7.45;0.93;;;;;;;;;;5030456;28;20021;-71
2022/04/06 07:41:51;;;;;;;13.70;1.50;;;;;;;;;;5041043;28;20108;-71
2022/04/06 07:44:16;;;;;;;9.75;1.67;;;;;;;;;;5029951;28;20092;-71
2022/04/06 07:46:41;;;;;;;8.75;1.40;;;;;;;;;;5026230;28;20049;-71
2022/04/06 07:49:07;;;;;;;2.33;1.00;;;;;;;;;;5032779;28;20057;-71
2022/04/06 07:51:32;;;;;;;5.65;1.88;;;;;;;;;;5035325;28;20117;-70
2022/04/06 07:53:57;;;;;;;9.25;2.08;;;;;;;;;;5033319;28;20109;-71
2022/04/06 07:56:23;;;;;;;12.57;4.80;;;;;;;;;;5030091;28;20029;-69
2022/04/06 07:58:48;;;;;;;7.10;1.80;;;;;;;;;;5032011;28;20271;-69
2022/04/06 08:01:13;;;;;;;3.80;1.38;;;;;;;;;;5029153;28;20067;-69
2022/04/06 08:03:38;;;;;;;8.40;1.40;;;;;;;;;;5027577;28;20022;-69
2022/04/06 08:06:04;;;;;;;3.83;1.42;;;;;;;;;;5030201;28;20101;-70
2022/04/06 08:08:29;;;;;;;2.78;1.73;;;;;;;;;;5034343;28;20401;-70
2022/04/06 08:10:55;;;;;;;5.63;1.15;;;;;;;;;;5034325;28;20073;-70
2022/04/06 08:13:20;;;;;;;4.75;1.42;;;;;;;;;;5036398;28;20048;-69
2022/04/06 08:15:45;;;;;;;6.30;1.10;;;;;;;;;;5032511;28;20033;-69
2022/04/06 08:18:11;;;;;;;7.97;1.63;;;;;;;;;;5028396;28;20324;-69
2022/04/06 08:20:37;;;;;;;6.85;1.48;;;;;;;;;;5040182;28;20462;-70
2022/04/06 08:23:02;;;;;;;3.78;2.17;;;;;;;;;;5033177;28;20027;-70
2022/04/06 08:25:27;;;;;;;5.70;1.45;;;;;;;;;;5020581;28;20026;-69
2022/04/06 08:27:52;;;;;;;6.15;2.53;;;;;;;;;;5042461;28;20028;-70
2022/04/06 08:30:20;;;;;;;3.70;1.40;;;;;;;;;;5026972;28;20025;-75
2022/04/06 08:32:45;;;;;;;5.55;1.27;;;;;;;;;;5034025;28;20021;-69
2022/04/06 08:35:12;;;;;;;14.18;1.42;;;;;;;;;;5028620;28;20020;-70
2022/04/06 08:37:38;;;;;;;3.35;1.08;;;;;;;;;;5033214;28;20040;-71
2022/04/06 08:40:03;;;;;;;3.92;1.20;;;;;;;;;;5042939;28;20458;-69
2022/04/06 08:42:32;;;;;;;8.23;1.33;;;;;;;;;;5041195;28;20469;-70
2022/04/06 08:44:59;;;;;;;6.10;1.60;;;;;;;;;;5032552;28;20051;-70
2022/04/06 08:47:25;;;;;;;5.00;1.70;;;;;;;;;;5034120;28;20024;-70
2022/04/06 08:49:51;;;;;;;2.92;0.93;;;;;;;;;;5040515;28;20017;-70
2022/04/06 08:52:16;;;;;;;6.75;1.48;;;;;;;;;;5039529;28;20086;-70
2022/04/06 08:54:41;;;;;;;2.60;1.10;;;;;;;;;;5039237;28;20018;-69
2022/04/06 08:57:07;;;;;;;9.87;2.20;;;;;;;;;;5041712;28;20016;-70
2022/04/06 08:59:32;;;;;;;15.70;1.77;;;;;;;;;;5039346;28;20406;-71
2022/04/06 09:01:58;;;;;;;13.35;2.25;;;;;;;;;;5038004;28;20079;-71
2022/04/06 09:04:24;;;;;;;7.20;2.10;;;;;;;;;;5031822;28;20116;-71
2022/04/06 09:06:49;;;;;;;4.32;1.90;;;;;;;;;;5044993;28;20021;-70
2022/04/06 09:09:20;;;;;;;6.63;1.25;;;;;;;;;;5038162;28;20025;-69
2022/04/06 09:11:45;;;;;;;8.98;1.85;;;;;;;;;;5047905;28;20079;-70
2022/04/06 09:14:12;;;;;;;13.63;2.65;;;;;;;;;;5037290;28;20021;-69
2022/04/06 09:16:37;;;;;;;9.23;2.03;;;;;;;;;;5037213;28;20017;-69
2022/04/06 09:19:10;;;;;;;8.38;1.50;;;;;;;;;;5029720;28;20399;-68
2022/04/06 09:21:42;;;;;;;5.28;1.92;;;;;;;;;;5032662;28;20029;-71
2022/04/06 09:24:17;;;;;;;8.15;2.15;;;;;;;;;;5038341;28;20467;-71
2022/04/06 09:26:42;;;;;;;6.40;2.05;;;;;;;;;;5041537;28;20020;-72
2022/04/06 09:29:10;;;;;;;5.25;1.48;;;;;;;;;;5034353;28;20087;-70
2022/04/06 09:31:37;;;;;;;5.75;1.10;;;;;;;;;;5040137;28;20481;-72
2022/04/06 09:34:03;;;;;;;7.00;1.45;;;;;;;;;;5046142;28;20021;-71
2022/04/06 09:36:29;;;;;;;5.60;2.95;;;;;;;;;;5039368;28;20021;-71
2022/04/06 09:38:55;;;;;;;4.72;0.70;;;;;;;;;;5035030;28;20037;-70
2022/04/06 09:41:20;;;;;;;4.50;1.30;;;;;;;;;;5041527;28;20021;-71
2022/04/06 09:43:46;;;;;;;7.65;1.35;;;;;;;;;;5036350;28;20088;-69
2022/04/06 09:49:13;;;;;;;3.65;0.98;;;;;;;;;;5034288;28;20045;-71
2022/04/06 09:51:39;;;;;;;7.18;1.45;;;;;;;;;;5033955;28;20040;-71
2022/04/06 09:54:05;;;;;;;2.00;0.60;;;;;;;;;;5036664;28;20386;-71
2022/04/06 09:56:32;;;;;;;3.67;1.00;;;;;;;;;;5044415;28;20024;-70
2022/04/06 09:58:57;;;;;;;11.73;0.80;;;;;;;;;;5032106;28;20497;-71
2022/04/06 10:01:24;;;;;;;2.80;1.05;;;;;;;;;;5035295;28;20102;-71
2022/04/06 10:03:54;;;;;;;2.00;0.70;;;;;;;;;;5031213;28;20165;-71
2022/04/06 10:06:19;;;;;;;1.60;0.90;;;;;;;;;;5029490;28;20017;-73
2022/04/06 10:08:45;;;;;;;4.35;0.90;;;;;;;;;;5032722;28;20436;-68
2022/04/06 10:11:12;;;;;;;5.18;1.00;;;;;;;;;;5046525;28;20066;-68
2022/04/06 10:13:38;;;;;;;5.13;1.17;;;;;;;;;;5035611;28;20018;-68
2022/04/06 10:16:03;;;;;;;12.45;1.27;;;;;;;;;;5044383;28;20389;-69
2022/04/06 10:18:32;;;;;;;1.98;0.88;;;;;;;;;;5040328;28;20017;-68
2022/04/06 10:21:00;;;;;;;10.05;1.08;;;;;;;;;;5032933;28;20020;-69
2022/04/06 10:23:44;;;;;;;5.50;0.90;;;;;;;;;;5032913;28;20429;-69
2022/04/06 10:26:28;;;;;;;3.90;0.93;;;;;;;;;;5022569;28;20386;-68
2022/04/06 10:28:53;;;;;;;4.32;1.08;;;;;;;;;;5024834;28;20401;-68
2022/04/06 10:31:19;;;;;;;11.73;1.35;;;;;;;;;;5020419;28;20156;-69
2022/04/06 10:33:47;;;;;;;4.63;1.17;;;;;;;;;;5033689;28;20029;-69
2022/04/06 10:36:16;;;;;;;2.95;1.17;;;;;;;;;;5039855;28;20013;-69
2022/04/06 10:39:01;;;;;;;5.78;1.10;;;;;;;;;;5033540;28;20021;-69
2022/04/06 10:41:26;;;;;;;7.07;1.40;;;;;;;;;;5022658;28;20052;-70
2022/04/06 10:43:52;;;;;;;4.93;1.33;;;;;;;;;;5043122;28;20051;-71
2022/04/06 10:46:30;;;;;;;4.10;1.13;;;;;;;;;;5035503;28;20052;-69
2022/04/06 10:48:56;;;;;;;2.83;1.02;;;;;;;;;;5037145;28;20020;-69
2022/04/06 10:51:29;;;;;;;1.92;0.80;;;;;;;;;;5042940;28;20384;-69
2022/04/06 10:53:54;;;;;;;6.82;0.98;;;;;;;;;;5027850;28;20230;-69
2022/04/06 10:56:22;;;;;;;3.45;0.88;;;;;;;;;;5033776;28;20108;-69
2022/04/06 10:58:53;;;;;;;6.20;1.30;;;;;;;;;;5023695;28;20063;-71
2022/04/06 11:01:18;;;;;;;6.05;0.65;;;;;;;;;;5035061;28;20078;-68
2022/04/06 11:03:59;;;;;;;2.55;0.70;;;;;;;;;;5037521;28;20530;-69
2022/04/06 11:06:24;;;;;;;;;;;;;;;;;;5039192;28;20047;-72
2022/04/06 11:11:37;;;;;;;7.88;1.42;;;;;;;;;;5038767;28;20032;-72
2022/04/06 11:14:03;;;;;;;20.75;2.22;;;;;;;;;;5036811;28;20101;-72
2022/04/06 11:16:41;;;;;;;12.27;1.85;;;;;;;;;;5036061;28;20105;-71
2022/04/06 11:19:07;;;;;;;8.70;1.17;;;;;;;;;;5027284;28;20017;-70
2022/04/06 11:21:32;;;;;;;2.55;0.90;;;;;;;;;;5036561;28;20122;-71
2022/04/06 11:23:57;;;;;;;10.07;1.73;;;;;;;;;;5029422;28;20067;-71
2022/04/06 11:26:23;;;;;;;12.80;2.03;;;;;;;;;;5027162;28;20017;-71
2022/04/06 11:29:01;;;;;;;4.78;0.85;;;;;;;;;;5035280;28;20023;-71
2022/04/06 11:31:26;;;;;;;2.65;1.05;;;;;;;;;;5027353;28;20530;-71
2022/04/06 11:33:51;;;;;;;3.43;0.60;;;;;;;;;;5040364;28;20100;-71
2022/04/06 11:36:17;;;;;;;1.40;0.77;;;;;;;;;;5038593;28;20272;-71
2022/04/06 11:38:47;;;;;;;2.80;0.95;;;;;;;;;;5039898;28;20284;-71
2022/04/06 11:41:12;;;;;;;7.33;0.73;;;;;;;;;;5039279;28;20028;-71
2022/04/06 11:43:42;;;;;;;8.30;1.03;;;;;;;;;;5044071;28;20017;-71
2022/04/06 11:46:07;;;;;;;6.40;0.80;;;;;;;;;;5037588;28;20362;-72
2022/04/06 11:48:42;;;;;;;2.15;1.13;;;;;;;;;;5028310;28;20112;-71
2022/04/06 11:51:08;;;;;;;2.53;1.00;;;;;;;;;;5042341;28;20017;-71
2022/04/06 11:53:33;;;;;;;3.03;0.88;;;;;;;;;;5036547;28;20131;-71
2022/04/06 11:56:00;;;;;;;3.55;0.50;;;;;;;;;;5032727;28;20382;-71
2022/04/06 11:58:32;;;;;;;3.28;0.93;;;;;;;;;;5037007;28;20029;-71
2022/04/06 12:00:58;;;;;;;3.80;1.10;;;;;;;;;;5036870;28;20025;-70
2022/04/06 12:03:27;;;;;;;4.43;0.60;;;;;;;;;;5035888;28;20021;-70
2022/04/06 12:05:52;;;;;;;3.45;0.75;;;;;;;;;;5029871;28;20121;-71
2022/04/06 12:08:17;;;;;;;3.03;0.83;;;;;;;;;;5039464;28;20105;-70
2022/04/06 12:10:46;;;;;;;4.47;0.50;;;;;;;;;;5033152;28;20302;-71
2022/04/06 12:13:11;;;;;;;2.17;1.02;;;;;;;;;;5030235;28;20374;-71
2022/04/06 12:15:39;;;;;;;5.00;0.93;;;;;;;;;;5040632;28;20010;-71
2022/04/06 12:18:04;;;;;;;3.60;0.85;;;;;;;;;;5038002;28;20537;-72
2022/04/06 12:20:29;;;;;;;2.08;0.45;;;;;;;;;;5034463;28;20096;-70
2022/04/06 12:23:04;;;;;;;3.78;0.95;;;;;;;;;;5038659;28;20025;-70
2022/04/06 12:25:30;;;;;;;1.90;0.40;;;;;;;;;;5030927;28;20020;-70
2022/04/06 12:28:28;;;;;;;5.03;0.70;;;;;;;;;;5032354;28;20033;-70
2022/04/06 12:30:55;;;;;;;4.55;0.80;;;;;;;;;;4988023;28;20043;-70
2022/04/06 12:33:37;;;;;;;8.40;0.85;;;;;;;;;;5030182;28;20037;-70
2022/04/06 12:36:08;;;;;;;2.45;1.58;;;;;;;;;;5039480;28;20016;-70
2022/04/06 12:38:34;;;;;;;3.08;0.70;;;;;;;;;;5041385;28;20017;-70
2022/04/06 12:41:07;;;;;;;3.15;1.40;;;;;;;;;;5037398;28;20075;-70
2022/04/06 12:43:32;;;;;;;2.65;0.60;;;;;;;;;;5044933;28;20424;-70
2022/04/06 12:45:57;;;;;;;6.90;0.70;;;;;;;;;;5027681;28;20104;-70
2022/04/06 12:48:22;;;;;;;3.90;0.65;;;;;;;;;;5037346;28;20017;-70
2022/04/06 12:50:47;;;;;;;2.90;0.70;;;;;;;;;;5036715;28;20124;-70
2022/04/06 12:53:16;;;;;;;1.10;0.60;;;;;;;;;;5050573;28;20314;-73
2022/04/06 12:55:42;;;;;;;3.60;0.82;;;;;;;;;;5034488;28;20021;-73
2022/04/06 12:58:21;;;;;;;4.03;0.60;;;;;;;;;;5042184;28;20378;-70
2022/04/06 13:00:56;;;;;;;11.02;1.02;;;;;;;;;;5041529;28;20017;-70
2022/04/06 13:03:21;;;;;;;4.35;0.90;;;;;;;;;;5048453;28;20049;-70
2022/04/06 13:05:47;;;;;;;1.05;0.60;;;;;;;;;;5042234;28;20425;-70
2022/04/06 13:08:12;;;;;;;3.00;1.45;;;;;;;;;;5028198;28;20104;-70
2022/04/06 13:10:38;;;;;;;5.23;1.00;;;;;;;;;;5036906;28;20105;-71
2022/04/06 13:13:04;;;;;;;2.00;0.73;;;;;;;;;;5042523;28;20274;-71
2022/04/06 13:15:30;;;;;;;3.63;0.80;;;;;;;;;;5033058;28;20016;-68
2022/04/06 13:17:55;;;;;;;5.78;1.10;;;;;;;;;;5031044;28;20028;-69
2022/04/06 13:20:21;;;;;;;3.70;1.00;;;;;;;;;;5043656;28;20021;-69
2022/04/06 13:22:47;;;;;;;1.05;0.60;;;;;;;;;;5044076;28;20542;-69
2022/04/06 13:25:12;;;;;;;4.97;0.50;;;;;;;;;;5043600;28;20027;-71
2022/04/06 13:27:38;;;;;;;7.78;1.40;;;;;;;;;;5037944;28;20656;-70
2022/04/06 13:30:07;;;;;;;6.75;0.98;;;;;;;;;;5045149;28;20045;-70
2022/04/06 13:32:32;;;;;;;8.93;1.15;;;;;;;;;;5044438;28;20211;-69
2022/04/06 13:34:57;;;;;;;9.20;1.98;;;;;;;;;;5039113;28;20047;-73
2022/04/06 13:37:22;;;;;;;9.88;1.65;;;;;;;;;;5032091;28;20013;-69
2022/04/06 13:39:48;;;;;;;6.10;1.43;;;;;;;;;;5046965;28;20070;-69
2022/04/06 13:42:16;;;;;;;4.85;1.40;;;;;;;;;;5035535;28;20406;-70
2022/04/06 13:44:41;;;;;;;7.88;1.35;;;;;;;;;;5039212;28;20495;-67
2022/04/06 13:47:07;;;;;;;7.68;1.48;;;;;;;;;;5040596;28;20116;-72
2022/04/06 13:49:32;;;;;;;1.90;0.73;;;;;;;;;;5035996;28;20036;-72
2022/04/06 13:52:00;;;;;;;6.40;1.25;;;;;;;;;;5035557;28;20027;-68
2022/04/06 13:54:25;;;;;;;4.38;1.35;;;;;;;;;;5037878;28;20467;-70
2022/04/06 13:56:51;;;;;;;3.47;0.90;;;;;;;;;;5028761;28;20095;-70
2022/04/06 13:59:17;;;;;;;3.78;0.80;;;;;;;;;;5033326;28;20020;-71
2022/04/06 14:01:42;;;;;;;6.93;1.08;;;;;;;;;;5029628;28;20017;-69
2022/04/06 14:04:08;;;;;;;2.40;0.90;;;;;;;;;;5033630;28;20045;-71
2022/04/06 14:06:33;;;;;;;4.45;1.35;;;;;;;;;;5036556;28;20029;-71
2022/04/06 14:08:59;;;;;;;2.05;1.15;;;;;;;;;;5039412;28;20052;-73
2022/04/06 14:11:24;;;;;;;3.95;1.52;;;;;;;;;;5030396;28;20024;-70
2022/04/06 14:13:50;;;;;;;6.28;2.10;;;;;;;;;;5029901;28;20419;-68
2022/04/06 14:16:16;;;;;;;4.50;1.90;;;;;;;;;;5030825;28;20017;-69
2022/04/06 14:18:42;;;;;;;4.50;1.70;;;;;;;;;;5031539;28;20055;-69
2022/04/06 14:21:07;;;;;;;8.50;3.90;;;;;;;;;;5035865;28;20009;-71
2022/04/06 14:23:37;;;;;;;2.95;1.20;;;;;;;;;;5038783;28;20025;-70
2022/04/06 14:26:02;;;;;;;5.90;2.60;;;;;;;;;;5031634;28;20017;-72
2022/04/06 14:28:28;;;;;;;5.75;1.73;;;;;;;;;;5037821;28;20189;-72
2022/04/06 14:30:54;;;;;;;3.55;1.60;;;;;;;;;;5030529;28;20448;-72
2022/04/06 14:33:20;;;;;;;5.38;1.95;;;;;;;;;;5040574;28;20017;-72
2022/04/06 14:35:46;;;;;;;6.38;1.70;;;;;;;;;;5038085;28;20490;-72
2022/04/06 14:38:12;;;;;;;4.03;1.05;;;;;;;;;;5036574;28;20021;-72
2022/04/06 14:40:37;;;;;;;6.00;1.60;;;;;;;;;;5034724;28;20084;-71
2022/04/06 14:43:03;;;;;;;12.85;2.47;;;;;;;;;;5046782;28;20485;-71